createdAt,value
2022-12-31T09:19:17.642Z,4.90
2022-12-31T09:21:55.834Z,8.23
2022-12-31T09:24:34.054Z,6.50
2022-12-31T09:27:27.283Z,6.63
2022-12-31T09:30:09.637Z,5.53
2022-12-31T09:33:00.862Z,5.70
2022-12-31T09:35:52.794Z,6.27
2022-12-31T09:38:37.175Z,7.07
2022-12-31T09:41:27.594Z,5.80
2022-12-31T09:44:52.039Z,6.67
2022-12-31T09:48:14.707Z,6.30
2022-12-31T09:51:12.142Z,8.37
2022-12-31T09:54:08.535Z,12.37
2022-12-31T09:57:01.141Z,6.70
2022-12-31T09:59:48.854Z,8.83
2022-12-31T10:02:58.925Z,8.10
2022-12-31T10:05:56.579Z,9.83
2022-12-31T10:08:57.088Z,8.63
2022-12-31T10:11:50.996Z,8.93
2022-12-31T10:14:49.012Z,8.23
2022-12-31T10:17:52.324Z,9.33
2022-12-31T10:20:50.399Z,7.90
2022-12-31T10:23:58.664Z,7.60
2022-12-31T10:27:05.349Z,6.63
2022-12-31T10:29:56.318Z,10.67
2022-12-31T10:32:46.345Z,6.80
2022-12-31T10:35:44.531Z,6.50
2022-12-31T10:38:35.595Z,6.83
2022-12-31T10:42:12.059Z,6.10
2022-12-31T10:45:19.667Z,7.13
2022-12-31T10:48:47.379Z,6.50
2022-12-31T10:51:57.009Z,6.77
2022-12-31T10:55:10.740Z,6.90
2022-12-31T10:58:44.253Z,8.27
2022-12-31T11:04:42.545Z,8.05
2022-12-31T11:07:55.276Z,8.75
2022-12-31T11:11:07.426Z,8.40
2022-12-31T11:14:31.920Z,8.87
2022-12-31T11:17:33.268Z,8.63
2022-12-31T11:20:39.545Z,8.63
2022-12-31T11:23:35.387Z,8.07
2022-12-31T11:26:23.706Z,11.40
2022-12-31T11:29:32.842Z,8.53
2022-12-31T11:32:34.326Z,8.77
2022-12-31T11:35:30.568Z,10.37
2022-12-31T11:38:24.763Z,9.40
2022-12-31T11:41:11.320Z,8.53
2022-12-31T11:44:00.160Z,8.83
2022-12-31T11:47:01.973Z,7.57
2022-12-31T11:49:57.734Z,13.00
2022-12-31T11:52:54.361Z,13.07
2022-12-31T11:56:02.262Z,10.17
2022-12-31T11:58:39.285Z,9.43
2022-12-31T12:01:22.547Z,8.23
2022-12-31T12:04:02.324Z,10.70
2022-12-31T12:06:39.644Z,11.00
2022-12-31T12:09:34.209Z,8.77
2022-12-31T12:12:11.787Z,8.90
2022-12-31T12:14:52.775Z,7.23
2022-12-31T12:17:35.861Z,6.70
2022-12-31T12:20:22.563Z,7.00
2022-12-31T12:23:02.564Z,6.63
2022-12-31T12:25:44.472Z,6.30
2022-12-31T12:28:28.242Z,6.60
2022-12-31T12:31:08.565Z,6.15
2022-12-31T12:33:48.563Z,7.27
2022-12-31T12:36:28.183Z,6.87
2022-12-31T12:39:07.132Z,7.50
2022-12-31T12:41:43.966Z,5.50
2022-12-31T12:44:21.561Z,5.93
2022-12-31T12:46:59.669Z,5.93
2022-12-31T12:49:43.463Z,4.60
2022-12-31T12:52:53.769Z,7.07
2022-12-31T12:55:45.851Z,5.33
2022-12-31T12:58:42.016Z,4.27
2022-12-31T13:01:35.220Z,5.87
2022-12-31T13:04:49.693Z,4.43
2022-12-31T13:07:50.393Z,5.07
2022-12-31T13:10:54.613Z,4.90
2022-12-31T13:13:44.645Z,5.00
2022-12-31T13:16:29.802Z,6.47
2022-12-31T13:19:15.138Z,5.03
2022-12-31T13:22:00.142Z,6.50
2022-12-31T13:24:53.889Z,4.90
2022-12-31T13:27:37.361Z,5.70
2022-12-31T13:30:31.477Z,4.80
2022-12-31T13:33:17.784Z,4.53
2022-12-31T13:36:00.013Z,6.27
2022-12-31T13:38:42.071Z,4.93
2022-12-31T13:41:28.303Z,5.47
2022-12-31T13:44:18.080Z,5.00
2022-12-31T13:47:04.818Z,4.33
2022-12-31T13:49:47.050Z,6.07
2022-12-31T13:52:37.776Z,5.30
2022-12-31T13:55:21.693Z,4.93
2022-12-31T13:58:13.229Z,5.77
2022-12-31T14:00:56.715Z,4.97
2022-12-31T14:03:45.677Z,5.97
2022-12-31T14:06:32.338Z,5.97
2022-12-31T14:09:14.869Z,5.67
2022-12-31T14:12:21.406Z,5.77
2022-12-31T14:15:14.099Z,5.20
2022-12-31T14:18:00.212Z,5.80
2022-12-31T14:20:49.189Z,4.63
2022-12-31T14:23:44.320Z,6.03
2022-12-31T14:26:29.448Z,4.63
2022-12-31T14:29:19.452Z,6.97
2022-12-31T14:32:23.035Z,6.33
2022-12-31T14:35:16.417Z,5.03
2022-12-31T14:40:55.129Z,5.10
2022-12-31T14:43:48.974Z,6.10
2022-12-31T14:46:36.148Z,5.45
2022-12-31T14:49:43.166Z,4.60
2022-12-31T14:52:30.380Z,4.53
2022-12-31T14:55:30.507Z,5.20
2022-12-31T14:58:28.202Z,5.40
2022-12-31T15:01:10.596Z,4.10
2022-12-31T15:03:49.301Z,3.90
2022-12-31T15:07:00.713Z,4.87
2022-12-31T15:10:06.689Z,18.60
2022-12-31T15:13:01.935Z,11.97
2022-12-31T15:16:00.190Z,5.87
2022-12-31T15:18:55.570Z,6.37
2022-12-31T15:22:11.545Z,4.57
2022-12-31T15:24:51.495Z,4.43
2022-12-31T15:27:42.949Z,5.70
2022-12-31T15:30:43.431Z,5.07
2022-12-31T15:33:30.407Z,5.00
2022-12-31T15:36:24.482Z,5.33
2022-12-31T15:39:29.811Z,4.97
2022-12-31T15:45:14.712Z,4.77
2022-12-31T15:48:00.623Z,4.23
2022-12-31T15:50:42.341Z,3.57
2022-12-31T15:53:32.045Z,5.50
2022-12-31T15:56:22.065Z,4.13
2022-12-31T15:59:05.905Z,5.97
2022-12-31T16:04:26.323Z,6.85
2022-12-31T16:07:09.681Z,4.73
2022-12-31T16:09:56.908Z,6.90
2022-12-31T16:12:44.842Z,4.40
2022-12-31T16:15:28.996Z,4.87
2022-12-31T16:18:09.439Z,9.80
2022-12-31T16:20:52.194Z,5.20
2022-12-31T16:23:31.069Z,9.13
2022-12-31T16:26:08.824Z,6.47
2022-12-31T16:28:52.316Z,3.72
2022-12-31T16:31:32.845Z,4.80
2022-12-31T16:34:16.799Z,5.77
2022-12-31T16:37:04.563Z,5.32
2022-12-31T16:40:04.699Z,5.97
2022-12-31T16:42:44.708Z,5.38
2022-12-31T16:45:37.438Z,7.05
2022-12-31T16:48:21.516Z,4.88
2022-12-31T16:51:00.184Z,8.88
2022-12-31T16:53:45.480Z,12.43
2022-12-31T16:56:33.445Z,4.53
2022-12-31T16:59:23.359Z,3.97
2022-12-31T17:02:07.216Z,3.97
2022-12-31T17:04:55.370Z,4.85
2022-12-31T17:07:46.759Z,3.17
2022-12-31T17:10:27.736Z,3.95
2022-12-31T17:13:29.664Z,2.95
2022-12-31T17:16:13.153Z,4.00
2022-12-31T17:18:54.491Z,2.70
2022-12-31T17:21:33.960Z,2.67
2022-12-31T17:24:17.322Z,3.70
2022-12-31T17:26:56.972Z,6.00
2022-12-31T17:29:35.240Z,4.00
2022-12-31T17:32:33.797Z,6.38
2022-12-31T17:35:33.114Z,4.90
2022-12-31T17:38:35.917Z,3.00
2022-12-31T17:41:29.675Z,2.88
2022-12-31T17:44:08.714Z,4.18
2022-12-31T17:46:46.857Z,5.00
2022-12-31T17:49:35.174Z,2.70
2022-12-31T17:52:19.631Z,4.38
2022-12-31T17:54:56.977Z,4.63
2022-12-31T17:57:34.417Z,4.80
2022-12-31T18:00:22.425Z,5.18
2022-12-31T18:03:00.669Z,4.50
2022-12-31T18:05:38.954Z,4.53
2022-12-31T18:08:18.277Z,3.05
2022-12-31T18:10:57.725Z,3.65
2022-12-31T18:13:35.338Z,2.95
2022-12-31T18:16:13.919Z,6.47
2022-12-31T18:18:53.967Z,2.92
2022-12-31T18:21:36.543Z,2.55
2022-12-31T18:24:25.848Z,3.65
2022-12-31T18:27:04.577Z,3.60
2022-12-31T18:29:42.028Z,3.72
2022-12-31T18:32:26.621Z,2.75
2022-12-31T18:37:41.349Z,3.92
2022-12-31T18:40:21.100Z,2.70
2022-12-31T18:43:04.737Z,4.00
2022-12-31T18:45:42.248Z,5.43
2022-12-31T18:48:20.348Z,2.88
2022-12-31T18:50:57.307Z,4.90
2022-12-31T18:53:34.519Z,4.78
2022-12-31T18:56:18.867Z,4.00
2022-12-31T18:58:56.140Z,2.67
2022-12-31T19:01:35.882Z,3.03
2022-12-31T19:04:26.544Z,4.30
2022-12-31T19:07:04.208Z,3.60
2022-12-31T19:09:46.430Z,3.63
2022-12-31T19:12:27.425Z,3.45
2022-12-31T19:15:05.202Z,2.20
2022-12-31T19:17:42.014Z,4.50
2022-12-31T19:20:20.646Z,2.92
2022-12-31T19:22:59.232Z,3.80
2022-12-31T19:25:39.297Z,2.88
2022-12-31T19:28:23.909Z,2.55
2022-12-31T19:31:03.493Z,3.92
2022-12-31T19:33:41.287Z,2.15
2022-12-31T19:36:22.384Z,2.05
2022-12-31T19:39:00.482Z,3.90
2022-12-31T19:41:39.168Z,5.18
2022-12-31T19:44:23.583Z,3.28
2022-12-31T19:47:01.649Z,3.50
2022-12-31T19:49:39.545Z,7.35
2022-12-31T19:52:17.711Z,3.75
2022-12-31T19:54:54.783Z,3.08
2022-12-31T19:57:33.019Z,3.75
2022-12-31T20:00:17.394Z,3.42
2022-12-31T20:02:55.543Z,2.65
2022-12-31T20:05:34.151Z,2.65
2022-12-31T20:08:13.222Z,3.20
2022-12-31T20:10:51.364Z,2.95
2022-12-31T20:13:30.232Z,3.42
2022-12-31T20:16:12.173Z,3.75
2022-12-31T20:18:51.938Z,2.58
2022-12-31T20:21:32.981Z,2.30
2022-12-31T20:24:12.411Z,4.07
2022-12-31T20:26:49.615Z,1.85
2022-12-31T20:29:27.869Z,2.33
2022-12-31T20:32:08.656Z,3.25
2022-12-31T20:34:47.711Z,2.38
2022-12-31T20:37:25.217Z,3.28
2022-12-31T20:40:03.160Z,3.92
2022-12-31T20:42:41.105Z,4.57
2022-12-31T20:45:18.941Z,5.53
2022-12-31T20:47:59.407Z,4.72
2022-12-31T20:50:37.613Z,7.70
2022-12-31T20:53:15.180Z,7.35
2022-12-31T20:55:53.933Z,4.90
2022-12-31T20:58:34.317Z,5.28
2022-12-31T21:01:15.140Z,4.25
2022-12-31T21:04:05.947Z,4.45
2022-12-31T21:06:46.072Z,5.53
2022-12-31T21:09:23.974Z,3.58
2022-12-31T21:12:15.655Z,3.72
2022-12-31T21:14:55.101Z,5.70
2022-12-31T21:17:33.087Z,3.35
2022-12-31T21:20:15.320Z,3.30
2022-12-31T21:22:54.347Z,5.10
2022-12-31T21:25:32.461Z,2.30
2022-12-31T21:28:11.708Z,5.13
2022-12-31T21:30:49.330Z,5.20
2022-12-31T21:33:26.598Z,4.75
2022-12-31T21:36:06.326Z,4.82
2022-12-31T21:38:43.664Z,6.13
2022-12-31T21:41:34.055Z,5.18
2022-12-31T21:44:13.102Z,4.53
2022-12-31T21:47:25.085Z,6.88
2022-12-31T21:49:51.853Z,6.20
2022-12-31T21:52:34.611Z,6.85
2022-12-31T21:55:27.694Z,5.35
2022-12-31T22:01:16.027Z,7.95
2022-12-31T22:03:53.828Z,7.13
2022-12-31T22:06:33.852Z,6.47
2022-12-31T22:09:13.598Z,4.72
2022-12-31T22:11:50.967Z,16.63
